Time;durP1;ratioP1;P1;durP2;ratioP2;P2;SDS_P1;SDS_P2;PMS_P1;PMS_P2;Temp;Humidity;BMP_temperature;BMP_pressure;BME280_temperature;BME280_humidity;BME280_pressure;Samples;Min_cycle;Max_cycle;Signal;HPM_P1;HPM_P2
2022/08/24 00:01:37;;;;;;;;;;;;;;;21.69;72.64;101704.13;5075338;28;20323;-35
2022/08/24 00:04:02;;;;;;;;;;;;;;;21.66;72.78;101704.69;5076074;28;20268;-35
2022/08/24 00:06:28;;;;;;;;;;;;;;;21.62;72.78;101697.28;5074056;28;20008;-35
2022/08/24 00:08:55;;;;;;;;;;;;;;;21.58;73.18;101692.34;5075265;28;19920;-35
2022/08/24 00:11:20;;;;;;;;;;;;;;;21.53;73.20;101689.63;5075005;28;19924;-35
2022/08/24 00:13:45;;;;;;;;;;;;;;;21.51;74.38;101693.75;5075133;28;19913;-35
2022/08/24 00:16:11;;;;;;;;;;;;;;;21.48;74.25;101700.69;5075506;28;19916;-35
2022/08/24 00:18:38;;;;;;;;;;;;;;;21.46;74.04;101702.06;5073938;28;19936;-35
2022/08/24 00:21:04;;;;;;;;;;;;;;;21.43;74.33;101703.47;5074907;28;20039;-35
2022/08/24 00:23:29;;;;;;;;;;;;;;;21.41;73.97;101702.91;5074913;28;20375;-35
2022/08/24 00:25:55;;;;;;;;;;;;;;;21.40;74.17;101700.44;5075714;28;19963;-35
2022/08/24 00:28:20;;;;;;;;;;;;;;;21.39;74.36;101704.31;5074536;28;19913;-35
2022/08/24 00:30:45;;;;;;;;;;;;;;;21.36;74.15;101708.44;5075287;28;20340;-35
2022/08/24 00:33:10;;;;;;;;;;;;;;;21.32;74.29;101718.34;5075180;28;19912;-35
2022/08/24 00:35:35;;;;;;;;;;;;;;;21.27;74.39;101712.84;5075198;28;20382;-35
2022/08/24 00:38:01;;;;;;;;;;;;;;;21.26;74.95;101708.44;5074601;28;19919;-35
2022/08/24 00:40:33;;;;;;;;;;;;;;;21.23;74.64;101714.53;5074849;28;19912;-35
2022/08/24 00:43:02;;;;;;;;;;;;;;;21.19;74.80;101716.19;5074748;28;20011;-35
2022/08/24 00:45:27;;;;;;;;;;;;;;;21.17;74.64;101710.94;5074268;28;19912;-35
2022/08/24 00:47:54;;;;;;;;;;;;;;;21.16;76.18;101716.75;5074093;28;19920;-35
2022/08/24 00:50:39;;;;;;;;;;;;;;;21.12;75.38;101719.22;5074178;28;20338;-35
2022/08/24 00:53:07;;;;;;;;;;;;;;;21.13;76.57;101723.63;5074516;28;19943;-35
2022/08/24 00:55:35;;;;;;;;;;;;;;;21.13;76.27;101720.03;5075059;28;19920;-35
2022/08/24 00:58:02;;;;;;;;;;;;;;;21.09;75.78;101711.56;5074950;28;20295;-35
2022/08/24 01:00:31;;;;;;;;;;;;;;;21.07;75.72;101727.50;5074419;28;19912;-35
2022/08/24 01:03:00;;;;;;;;;;;;;;;21.06;75.77;101723.09;5074063;28;19916;-35
2022/08/24 01:05:25;;;;;;;;;;;;;;;21.04;75.69;101722.56;5073874;28;19971;-35
2022/08/24 01:07:51;;;;;;;;;;;;;;;21.03;76.23;101720.91;5074007;28;20005;-35
2022/08/24 01:10:18;;;;;;;;;;;;;;;21.02;77.15;101722.00;5074765;28;19918;-34
2022/08/24 01:12:47;;;;;;;;;;;;;;;20.95;76.69;101713.25;5074174;28;19912;-34
2022/08/24 01:15:13;;;;;;;;;;;;;;;20.94;76.42;101715.19;5074125;28;19955;-34
2022/08/24 01:20:25;;;;;;;;;;;;;;;20.90;76.99;101705.00;5073888;28;20466;-35
2022/08/24 01:23:09;;;;;;;;;;;;;;;20.86;76.80;101709.41;5073523;28;19912;-34
2022/08/24 01:25:36;;;;;;;;;;;;;;;20.81;76.73;101713.81;5073857;28;19912;-34
2022/08/24 01:28:07;;;;;;;;;;;;;;;20.78;76.64;101717.13;5073648;28;19913;-35
2022/08/24 01:30:33;;;;;;;;;;;;;;;20.78;76.92;101722.63;5074367;28;19916;-35
2022/08/24 01:33:00;;;;;;;;;;;;;;;20.77;77.08;101720.16;5073348;28;20289;-35
2022/08/24 01:35:25;;;;;;;;;;;;;;;20.74;77.49;101710.56;5074464;28;19920;-35
2022/08/24 01:37:53;;;;;;;;;;;;;;;20.70;77.46;101714.13;5073930;28;19981;-35
2022/08/24 01:40:18;;;;;;;;;;;;;;;20.65;77.27;101712.22;5073726;28;19953;-35
2022/08/24 01:42:48;;;;;;;;;;;;;;;20.64;77.67;101707.78;5073950;28;20423;-34
2022/08/24 01:45:14;;;;;;;;;;;;;;;20.61;77.80;101708.38;5073901;28;19912;-35
2022/08/24 01:47:39;;;;;;;;;;;;;;;20.58;77.76;101709.75;5073504;28;20266;-35
2022/08/24 01:50:04;;;;;;;;;;;;;;;20.57;77.85;101704.53;5073528;28;20049;-35
2022/08/24 01:52:30;;;;;;;;;;;;;;;20.56;77.90;101705.63;5073461;28;20281;-38
2022/08/24 01:54:55;;;;;;;;;;;;;;;20.56;78.18;101706.47;5073451;28;19913;-35
2022/08/24 01:57:22;;;;;;;;;;;;;;;20.55;78.12;101704.00;5073317;28;19920;-35
2022/08/24 01:59:48;;;;;;;;;;;;;;;20.51;78.23;101705.66;5073910;28;19912;-35
2022/08/24 02:02:31;;;;;;;;;;;;;;;20.46;78.53;101705.63;5073636;28;19912;-35
2022/08/24 02:04:57;;;;;;;;;;;;;;;20.44;78.54;101703.13;5073375;28;19912;-35
2022/08/24 02:07:22;;;;;;;;;;;;;;;20.45;78.68;101701.22;5073322;28;19919;-35
2022/08/24 02:09:47;;;;;;;;;;;;;;;20.42;78.80;101707.25;5072241;28;19912;-35
2022/08/24 02:12:13;;;;;;;;;;;;;;;20.42;78.68;101702.59;5073536;28;19913;-35
2022/08/24 02:14:38;;;;;;;;;;;;;;;20.41;78.65;101709.19;5072896;28;19974;-35
2022/08/24 02:17:05;;;;;;;;;;;;;;;20.42;78.81;101710.00;5074460;28;20247;-35
2022/08/24 02:19:30;;;;;;;;;;;;;;;20.38;78.92;101707.00;5075533;28;19912;-35
2022/08/24 02:21:55;;;;;;;;;;;;;;;20.33;79.14;101707.00;5076008;28;19913;-35
2022/08/24 02:24:20;;;;;;;;;;;;;;;20.29;79.05;101708.63;5075878;28;19913;-35
2022/08/24 02:26:46;;;;;;;;;;;;;;;20.26;79.40;101714.69;5076159;28;19916;-35
2022/08/24 02:29:11;;;;;;;;;;;;;;;20.20;79.19;101716.59;5076233;28;19913;-35
2022/08/24 02:31:36;;;;;;;;;;;;;;;20.17;79.38;101721.84;5075497;28;19912;-34
2022/08/24 02:34:02;;;;;;;;;;;;;;;20.16;79.54;101734.75;5075319;28;19965;-34
2022/08/24 02:36:28;;;;;;;;;;;;;;;20.14;79.61;101725.94;5075599;28;19912;-35
2022/08/24 02:38:53;;;;;;;;;;;;;;;20.12;79.50;101727.31;5075576;28;20018;-35
2022/08/24 02:41:18;;;;;;;;;;;;;;;20.07;79.96;101728.13;5075380;28;19912;-35
2022/08/24 02:43:44;;;;;;;;;;;;;;;20.02;79.83;101737.19;5075540;28;19916;-35
2022/08/24 02:46:15;;;;;;;;;;;;;;;20.02;79.93;101728.13;5076008;28;19913;-35
2022/08/24 02:48:40;;;;;;;;;;;;;;;20.01;79.98;101721.00;5075763;28;20309;-35
2022/08/24 02:51:06;;;;;;;;;;;;;;;19.99;80.06;101724.00;5075131;28;19971;-35
2022/08/24 02:53:31;;;;;;;;;;;;;;;19.96;79.86;101715.47;5076136;28;19959;-35
2022/08/24 02:55:56;;;;;;;;;;;;;;;19.95;80.02;101731.13;5075860;28;20049;-35
2022/08/24 02:58:21;;;;;;;;;;;;;;;19.95;80.09;101727.56;5075185;28;19924;-35
2022/08/24 03:00:47;;;;;;;;;;;;;;;19.91;80.41;101721.81;5075334;28;20360;-35
2022/08/24 03:03:12;;;;;;;;;;;;;;;19.90;80.32;101719.31;5074904;28;20398;-35
2022/08/24 03:05:38;;;;;;;;;;;;;;;19.90;80.32;101722.06;5075537;28;20014;-35
2022/08/24 03:08:04;;;;;;;;;;;;;;;19.87;80.50;101722.63;5075372;28;19918;-34
2022/08/24 03:10:29;;;;;;;;;;;;;;;19.83;80.57;101716.84;5075108;28;19919;-34
2022/08/24 03:12:54;;;;;;;;;;;;;;;19.80;80.62;101712.72;5074841;28;19916;-34
2022/08/24 03:15:21;;;;;;;;;;;;;;;19.78;80.47;101714.91;5038766;28;1064842;-34
2022/08/24 03:17:47;;;;;;;;;;;;;;;19.77;80.63;101718.78;5075874;28;19953;-34
2022/08/24 03:20:14;;;;;;;;;;;;;;;19.72;80.93;101713.28;5076658;28;20007;-34
2022/08/24 03:22:39;;;;;;;;;;;;;;;19.70;81.10;101720.09;5076024;28;19965;-34
2022/08/24 03:25:05;;;;;;;;;;;;;;;19.69;80.96;101721.22;5076302;28;20011;-34
2022/08/24 03:27:30;;;;;;;;;;;;;;;19.68;80.85;101717.66;5075062;28;20003;-34
2022/08/24 03:29:55;;;;;;;;;;;;;;;19.67;81.03;101710.53;5076758;28;20074;-34
2022/08/24 03:32:21;;;;;;;;;;;;;;;19.67;81.01;101712.44;5075940;28;19920;-34
2022/08/24 03:34:46;;;;;;;;;;;;;;;19.63;80.98;101703.91;5076191;28;20326;-34
2022/08/24 03:37:11;;;;;;;;;;;;;;;19.62;80.91;101712.41;5075548;28;19913;-34
2022/08/24 03:39:37;;;;;;;;;;;;;;;19.60;81.08;101709.13;5076021;28;20021;-34
2022/08/24 03:42:02;;;;;;;;;;;;;;;19.59;81.25;101707.44;5076280;28;20003;-34
2022/08/24 03:44:27;;;;;;;;;;;;;;;19.58;81.02;101706.63;5075629;28;19962;-35
2022/08/24 03:46:52;;;;;;;;;;;;;;;19.57;81.11;101710.47;5076414;28;19913;-35
2022/08/24 03:49:18;;;;;;;;;;;;;;;19.56;81.13;101719.75;5075664;28;19931;-35
2022/08/24 03:51:43;;;;;;;;;;;;;;;19.56;81.12;101714.28;5076107;28;19912;-35
2022/08/24 03:54:09;;;;;;;;;;;;;;;19.56;81.34;101720.59;5075727;28;19912;-35
2022/08/24 03:56:35;;;;;;;;;;;;;;;19.56;81.37;101719.75;5075989;28;19917;-35
2022/08/24 03:59:00;;;;;;;;;;;;;;;19.55;81.37;101723.59;5075352;28;19920;-35
2022/08/24 04:01:25;;;;;;;;;;;;;;;19.50;81.58;101720.84;5075595;28;20276;-35
2022/08/24 04:03:52;;;;;;;;;;;;;;;19.47;81.54;101721.38;5075240;28;19920;-35
2022/08/24 04:06:19;;;;;;;;;;;;;;;19.43;81.53;101726.59;5075225;28;20361;-34
2022/08/24 04:08:44;;;;;;;;;;;;;;;19.41;81.62;101719.72;5075370;28;19918;-35
2022/08/24 04:11:14;;;;;;;;;;;;;;;19.39;81.54;101725.47;5075183;28;19913;-35
2022/08/24 04:13:39;;;;;;;;;;;;;;;19.37;81.72;101721.34;5074970;28;19966;-34
2022/08/24 04:16:08;;;;;;;;;;;;;;;19.36;82.16;101727.94;5075897;28;20015;-35
2022/08/24 04:18:34;;;;;;;;;;;;;;;19.32;81.97;101733.13;5075466;28;19965;-35
2022/08/24 04:20:59;;;;;;;;;;;;;;;19.30;81.86;101730.66;5075773;28;19913;-35
2022/08/24 04:23:24;;;;;;;;;;;;;;;19.30;81.86;101725.16;5074999;28;20360;-35
2022/08/24 04:25:50;;;;;;;;;;;;;;;19.29;82.19;101731.75;5075409;28;20341;-35
2022/08/24 04:28:17;;;;;;;;;;;;;;;19.26;82.28;101737.75;5074806;28;20011;-35
2022/08/24 04:30:43;;;;;;;;;;;;;;;19.26;82.27;101734.19;5075547;28;19923;-35
2022/08/24 04:33:09;;;;;;;;;;;;;;;19.25;82.06;101730.63;5075014;28;20006;-35
2022/08/24 04:35:42;;;;;;;;;;;;;;;19.24;82.02;101736.41;5074860;28;19955;-35
2022/08/24 04:38:08;;;;;;;;;;;;;;;19.23;82.04;101737.50;5074843;28;19919;-35
2022/08/24 04:40:33;;;;;;;;;;;;;;;19.20;82.08;101730.59;5074218;28;20436;-35
2022/08/24 04:42:59;;;;;;;;;;;;;;;19.18;82.36;101734.69;5074183;28;20015;-35
2022/08/24 04:45:25;;;;;;;;;;;;;;;19.15;82.32;101741.56;5075346;28;19935;-35
2022/08/24 04:47:50;;;;;;;;;;;;;;;19.16;82.44;101736.91;5074149;28;19913;-35
2022/08/24 04:50:15;;;;;;;;;;;;;;;19.14;82.34;101739.91;5074404;28;19920;-34
2022/08/24 04:52:40;;;;;;;;;;;;;;;19.12;82.42;101742.06;5074245;28;19919;-35
2022/08/24 04:55:06;;;;;;;;;;;;;;;19.10;82.62;101741.53;5074522;28;20015;-35
2022/08/24 04:57:32;;;;;;;;;;;;;;;19.10;82.57;101738.78;5073896;28;19916;-35
2022/08/24 04:59:57;;;;;;;;;;;;;;;19.10;82.79;101738.78;5073896;28;19938;-35
2022/08/24 05:02:23;;;;;;;;;;;;;;;19.09;83.00;101748.09;5074171;28;19912;-35
2022/08/24 05:04:48;;;;;;;;;;;;;;;19.06;83.22;101754.13;5074080;28;19919;-35
2022/08/24 05:07:13;;;;;;;;;;;;;;;19.06;83.32;101747.81;5074288;28;19919;-35
2022/08/24 05:09:38;;;;;;;;;;;;;;;19.07;83.70;101752.19;5074281;28;19919;-35
2022/08/24 05:12:04;;;;;;;;;;;;;;;19.06;83.09;101747.81;5074047;28;20315;-35
2022/08/24 05:14:29;;;;;;;;;;;;;;;19.06;84.12;101754.13;5073762;28;19962;-35
2022/08/24 05:16:54;;;;;;;;;;;;;;;19.03;83.97;101744.53;5074409;28;19920;-34
2022/08/24 05:19:20;;;;;;;;;;;;;;;19.04;84.00;101751.66;5073488;28;19966;-35
2022/08/24 05:21:46;;;;;;;;;;;;;;;19.08;83.72;101746.47;5073872;28;19916;-35
2022/08/24 05:24:11;;;;;;;;;;;;;;;19.13;83.77;101759.34;5073886;28;20268;-35
2022/08/24 05:26:36;;;;;;;;;;;;;;;19.16;85.15;101756.91;5074162;28;19962;-35
2022/08/24 05:29:02;;;;;;;;;;;;;;;19.22;84.13;101755.00;5074096;28;19952;-35
2022/08/24 05:31:29;;;;;;;;;;;;;;;19.29;84.06;101761.91;5073947;28;19934;-35
2022/08/24 05:33:54;;;;;;;;;;;;;;;19.39;84.12;101760.31;5073356;28;19924;-35
2022/08/24 05:36:27;;;;;;;;;;;;;;;19.46;83.87;101763.63;5074193;28;19912;-35
2022/08/24 05:38:54;;;;;;;;;;;;;;;19.52;83.75;101763.38;5073566;28;19974;-35
2022/08/24 05:41:19;;;;;;;;;;;;;;;19.60;83.77;101764.81;5073617;28;19913;-35
2022/08/24 05:43:44;;;;;;;;;;;;;;;19.69;83.58;101756.88;5073805;28;20026;-35
2022/08/24 05:46:10;;;;;;;;;;;;;;;19.77;83.36;101762.69;5073577;28;19957;-35
2022/08/24 05:48:36;;;;;;;;;;;;;;;19.86;83.22;101762.13;5073412;28;20379;-35
2022/08/24 05:51:02;;;;;;;;;;;;;;;19.93;83.12;101763.53;5073305;28;19912;-35
2022/08/24 05:53:27;;;;;;;;;;;;;;;19.99;82.97;101759.69;5073080;28;20387;-35
2022/08/24 05:55:53;;;;;;;;;;;;;;;20.04;83.03;101767.94;5073123;28;19913;-35
2022/08/24 05:58:18;;;;;;;;;;;;;;;20.13;83.08;101761.91;5073343;28;19919;-35
2022/08/24 06:00:48;;;;;;;;;;;;;;;20.20;82.70;101768.78;5073550;28;19913;-35
2022/08/24 06:03:13;;;;;;;;;;;;;;;20.27;82.59;101774.00;5073013;28;19919;-35
2022/08/24 06:05:40;;;;;;;;;;;;;;;20.33;83.93;101765.50;5072924;28;19913;-35
2022/08/24 06:08:05;;;;;;;;;;;;;;;20.39;83.54;101771.81;5073753;28;19916;-35
2022/08/24 06:10:31;;;;;;;;;;;;;;;20.43;86.38;101778.41;5073765;28;19923;-35
2022/08/24 06:12:56;;;;;;;;;;;;;;;20.41;89.55;101785.28;5072902;28;19916;-35
2022/08/24 06:15:22;;;;;;;;;;;;;;;20.37;91.99;101778.69;5073350;28;19916;-35
2022/08/24 06:17:47;;;;;;;;;;;;;;;20.32;92.77;101788.56;5073393;28;19993;-35
2022/08/24 06:20:12;;;;;;;;;;;;;;;20.35;92.92;101786.34;5073570;28;19960;-35
2022/08/24 06:22:37;;;;;;;;;;;;;;;20.38;93.28;101785.81;5073321;28;19995;-35
2022/08/24 06:27:47;;;;;;;;;;;;;;;20.50;94.42;101794.66;5073456;28;19920;-35
2022/08/24 06:30:12;;;;;;;;;;;;;;;20.57;91.72;101789.72;5073554;28;19912;-35
2022/08/24 06:32:38;;;;;;;;;;;;;;;20.65;91.24;101786.41;5073225;28;19913;-35
2022/08/24 06:35:03;;;;;;;;;;;;;;;20.72;93.58;101789.69;5073292;28;19919;-35
2022/08/24 06:37:29;;;;;;;;;;;;;;;20.76;92.28;101787.22;5073262;28;19913;-35
2022/08/24 06:39:55;;;;;;;;;;;;;;;20.80;93.87;101793.81;5072934;28;19922;-36
2022/08/24 06:42:20;;;;;;;;;;;;;;;20.87;92.53;101794.34;5072695;28;19919;-35
2022/08/24 06:44:45;;;;;;;;;;;;;;;20.94;92.82;101794.09;5073438;28;19966;-35
2022/08/24 06:47:11;;;;;;;;;;;;;;;21.03;93.61;101804.25;5072883;28;19919;-35
2022/08/24 06:49:36;;;;;;;;;;;;;;;21.09;92.16;101800.38;5072809;28;19966;-35
2022/08/24 06:52:03;;;;;;;;;;;;;;;21.14;93.56;101802.28;5072910;28;19941;-35
2022/08/24 06:54:28;;;;;;;;;;;;;;;21.20;93.60;101797.59;5072813;28;19916;-35
2022/08/24 06:56:55;;;;;;;;;;;;;;;21.26;91.50;101797.28;5073295;28;19920;-35
2022/08/24 06:59:20;;;;;;;;;;;;;;;21.35;92.46;101800.31;5072386;28;19912;-35
2022/08/24 07:01:45;;;;;;;;;;;;;;;21.43;92.45;101802.50;5073803;28;20046;-35
2022/08/24 07:04:10;;;;;;;;;;;;;;;21.50;92.73;101807.69;5075434;28;19939;-35
2022/08/24 07:06:36;;;;;;;;;;;;;;;21.57;91.15;101798.06;5076673;28;19912;-36
2022/08/24 07:09:01;;;;;;;;;;;;;;;21.66;90.93;101814.78;5076093;28;20325;-35
2022/08/24 07:11:26;;;;;;;;;;;;;;;21.71;90.79;101808.44;5076893;28;20070;-35
2022/08/24 07:13:51;;;;;;;;;;;;;;;21.78;89.48;101803.44;5076257;28;19912;-35
2022/08/24 07:16:18;;;;;;;;;;;;;;;21.85;89.37;101807.53;5077324;28;19917;-35
2022/08/24 07:18:43;;;;;;;;;;;;;;;21.94;88.28;101817.94;5076830;28;19939;-43
2022/08/24 07:21:09;;;;;;;;;;;;;;;22.02;87.88;101809.09;5076117;28;19912;-35
2022/08/24 07:23:34;;;;;;;;;;;;;;;22.08;85.97;101814.28;5075813;28;20375;-34
2022/08/24 07:26:04;;;;;;;;;;;;;;;22.16;85.46;101812.91;5076374;28;19912;-35
2022/08/24 07:28:29;;;;;;;;;;;;;;;22.26;86.06;101814.78;5076319;28;19933;-34
2022/08/24 07:30:54;;;;;;;;;;;;;;;22.32;84.66;101803.41;5076016;28;19916;-34
2022/08/24 07:33:20;;;;;;;;;;;;;;;22.38;84.47;101811.63;5075933;28;19923;-35
2022/08/24 07:35:45;;;;;;;;;;;;;;;22.44;84.68;101807.72;5076214;28;19912;-34
2022/08/24 07:38:10;;;;;;;;;;;;;;;22.51;84.76;101806.31;5075473;28;19935;-35
2022/08/24 07:40:36;;;;;;;;;;;;;;;22.63;83.68;101805.91;5075750;28;20343;-35
2022/08/24 07:43:01;;;;;;;;;;;;;;;22.73;84.00;101797.56;5075917;28;19946;-35
2022/08/24 07:45:27;;;;;;;;;;;;;;;22.82;83.62;101795.81;5075440;28;20007;-34
2022/08/24 07:47:53;;;;;;;;;;;;;;;22.93;83.33;101804.03;5075617;28;19963;-35
2022/08/24 07:50:19;;;;;;;;;;;;;;;23.00;81.84;101797.06;5075500;28;19951;-35
2022/08/24 07:52:45;;;;;;;;;;;;;;;23.08;81.51;101790.91;5075532;28;19961;-34
2022/08/24 07:55:11;;;;;;;;;;;;;;;23.19;80.77;101796.31;5075354;28;20291;-35
2022/08/24 07:57:38;;;;;;;;;;;;;;;23.30;80.45;101806.13;5075453;28;19964;-34
2022/08/24 08:00:05;;;;;;;;;;;;;;;23.37;79.74;101795.53;5075547;28;19918;-34
2022/08/24 08:02:31;;;;;;;;;;;;;;;23.46;78.50;101806.75;5075258;28;19981;-35
2022/08/24 08:04:56;;;;;;;;;;;;;;;23.54;78.47;101804.16;5076047;28;20392;-35
2022/08/24 08:07:21;;;;;;;;;;;;;;;23.62;77.17;101803.53;5074956;28;20372;-34
2022/08/24 08:09:48;;;;;;;;;;;;;;;23.70;76.46;101804.81;5074995;28;19919;-35
2022/08/24 08:12:13;;;;;;;;;;;;;;;23.76;76.55;101811.91;5075175;28;19962;-35
2022/08/24 08:14:38;;;;;;;;;;;;;;;23.81;75.77;101806.31;5074256;28;19916;-34
2022/08/24 08:17:05;;;;;;;;;;;;;;;23.87;73.41;101816.19;5075980;28;19935;-35
2022/08/24 08:19:31;;;;;;;;;;;;;;;23.97;74.76;101814.41;5074824;28;19916;-35
2022/08/24 08:24:43;;;;;;;;;;;;;;;24.18;72.96;101821.28;5075521;28;19920;-35
2022/08/24 08:27:13;;;;;;;;;;;;;;;24.26;74.82;101815.09;5075384;28;19962;-35
2022/08/24 08:29:40;;;;;;;;;;;;;;;24.32;74.66;101819.41;5075669;28;19918;-35
2022/08/24 08:32:10;;;;;;;;;;;;;;;24.40;74.04;101812.38;5075332;28;19912;-35
2022/08/24 08:34:36;;;;;;;;;;;;;;;24.50;73.73;101815.00;5075026;28;19962;-34
2022/08/24 08:37:02;;;;;;;;;;;;;;;24.59;72.90;101815.13;5075302;28;19912;-34
2022/08/24 08:39:28;;;;;;;;;;;;;;;24.70;73.00;101811.09;5074543;28;19920;-35
2022/08/24 08:42:13;;;;;;;;;;;;;;;24.80;71.30;101804.56;5074631;28;19912;-34
2022/08/24 08:44:47;;;;;;;;;;;;;;;24.91;67.54;101819.84;5075375;28;20010;-35
2022/08/24 08:47:32;;;;;;;;;;;;;;;24.99;68.47;101810.03;5075266;28;19919;-35
2022/08/24 08:50:00;;;;;;;;;;;;;;;25.08;68.35;101814.53;5075192;28;19916;-35
2022/08/24 08:52:40;;;;;;;;;;;;;;;25.21;69.32;101810.16;5074831;28;20270;-35
2022/08/24 08:55:19;;;;;;;;;;;;;;;25.39;68.87;101817.56;5074081;28;19962;-35
2022/08/24 08:58:17;;;;;;;;;;;;;;;25.52;67.30;101815.91;5074630;28;19920;-35
2022/08/24 09:00:42;;;;;;;;;;;;;;;25.68;64.46;101810.88;5052473;28;20272;-35
2022/08/24 09:03:20;;;;;;;;;;;;;;;25.76;62.62;101821.25;5052388;28;19913;-35
2022/08/24 09:05:57;;;;;;;;;;;;;;;25.85;64.16;101815.78;5052046;28;19912;-35
2022/08/24 09:08:25;;;;;;;;;;;;;;;25.96;65.71;101813.59;5051699;28;19917;-35
2022/08/24 09:10:55;;;;;;;;;;;;;;;26.11;65.52;101818.81;5051909;28;19956;-35
2022/08/24 09:13:31;;;;;;;;;;;;;;;26.14;60.89;101816.22;5051615;28;19920;-35
2022/08/24 09:16:26;;;;;;;;;;;;;;;26.25;61.70;101815.97;5052122;28;19917;-35
2022/08/24 09:18:57;;;;;;;;;;;;;;;26.31;61.87;101820.28;4954013;29;20406;-35
2022/08/24 09:21:36;;;;;;;;;;;;;;;26.43;62.40;101812.25;4953568;29;19977;-35
2022/08/24 09:24:13;;;;;;;;;;;;;;;26.42;57.38;101816.97;4953892;29;19922;-35
2022/08/24 09:26:57;;;;;;;;;;;;;;;26.48;59.47;101808.53;4953659;28;20365;-35
2022/08/24 09:29:36;;;;;;;;;;;;;;;26.50;59.62;101811.78;4953365;29;19997;-35
2022/08/24 09:32:20;;;;;;;;;;;;;;;26.50;59.49;101814.56;4953852;29;20009;-35
2022/08/24 09:34:56;;;;;;;;;;;;;;;26.61;61.11;101813.19;4953202;29;19914;-35
2022/08/24 09:37:30;;;;;;;;;;;;;;;26.76;61.07;101814.75;4990561;28;19921;-35
2022/08/24 09:40:16;;;;;;;;;;;;;;;26.91;59.17;101812.41;4991832;28;20421;-35
2022/08/24 09:42:41;;;;;;;;;;;;;;;26.98;60.65;101811.13;4992063;28;19914;-35
2022/08/24 09:45:26;;;;;;;;;;;;;;;26.92;61.16;101814.03;4991889;28;19951;-35
2022/08/24 09:48:03;;;;;;;;;;;;;;;26.65;57.65;101819.75;4991843;28;19913;-35
2022/08/24 09:50:47;;;;;;;;;;;;;;;26.57;59.11;101817.75;4991942;28;20325;-35
2022/08/24 09:53:31;;;;;;;;;;;;;;;26.60;60.37;101819.88;4991949;28;19914;-35
2022/08/24 09:55:59;;;;;;;;;;;;;;;26.68;60.96;101819.09;5055880;28;19916;-35
2022/08/24 09:58:43;;;;;;;;;;;;;;;26.82;60.17;101807.94;5073066;28;20390;-35
2022/08/24 10:01:11;;;;;;;;;;;;;;;27.03;61.18;101816.53;5073897;28;19912;-35
2022/08/24 10:03:54;;;;;;;;;;;;;;;27.27;60.43;101816.19;5073220;28;20334;-35
2022/08/24 10:06:25;;;;;;;;;;;;;;;27.51;59.86;101813.00;5073261;28;19912;-35
2022/08/24 10:08:50;;;;;;;;;;;;;;;27.61;59.13;101807.13;5073796;28;20276;-35
2022/08/24 10:11:24;;;;;;;;;;;;;;;27.73;57.33;101812.13;5074026;28;19913;-35
2022/08/24 10:13:51;;;;;;;;;;;;;;;27.78;57.19;101806.41;5074054;28;19966;-35
2022/08/24 10:16:27;;;;;;;;;;;;;;;27.80;57.40;101798.53;5073065;28;19916;-35
2022/08/24 10:18:55;;;;;;;;;;;;;;;27.82;53.58;101802.66;5073313;28;20268;-35
2022/08/24 10:21:20;;;;;;;;;;;;;;;27.89;56.01;101802.97;5073121;28;19920;-35
2022/08/24 10:23:54;;;;;;;;;;;;;;;28.06;55.85;101799.41;5073660;28;20024;-35
2022/08/24 10:26:52;;;;;;;;;;;;;;;28.24;51.12;101791.84;5073546;28;20314;-35
2022/08/24 10:29:36;;;;;;;;;;;;;;;28.29;52.68;101783.34;5050930;28;19945;-35
2022/08/24 10:32:09;;;;;;;;;;;;;;;28.46;53.25;101782.56;5050626;28;19913;-35
2022/08/24 10:34:54;;;;;;;;;;;;;;;28.54;53.70;101792.81;5050719;28;20007;-35
2022/08/24 10:37:25;;;;;;;;;;;;;;;28.58;52.74;101782.69;5051459;28;19912;-35
2022/08/24 10:40:09;;;;;;;;;;;;;;;28.72;53.03;101780.50;5054622;28;19913;-35
2022/08/24 10:45:44;;;;;;;;;;;;;;;29.01;51.69;101787.31;5054839;28;20265;-35
2022/08/24 10:48:15;;;;;;;;;;;;;;;28.94;51.96;101782.28;5054254;28;19958;-35
2022/08/24 10:50:49;;;;;;;;;;;;;;;28.76;49.35;101783.47;5054267;28;19920;-35
2022/08/24 10:53:25;;;;;;;;;;;;;;;28.54;49.54;101778.09;5054571;28;19966;-35
2022/08/24 10:55:56;;;;;;;;;;;;;;;28.35;53.01;101793.16;5054761;28;19959;-35
2022/08/24 10:58:34;;;;;;;;;;;;;;;28.18;52.29;101784.84;5054434;28;19948;-35
2022/08/24 11:01:19;;;;;;;;;;;;;;;28.04;52.95;101792.50;5054571;28;20492;-35
2022/08/24 11:03:47;;;;;;;;;;;;;;;27.90;53.86;101781.53;5054666;28;19916;-35
2022/08/24 11:06:16;;;;;;;;;;;;;;;27.81;54.51;101787.09;5076813;28;19913;-35
2022/08/24 11:08:50;;;;;;;;;;;;;;;27.76;53.97;101775.31;5076406;28;19935;-35
2022/08/24 11:11:22;;;;;;;;;;;;;;;27.77;54.15;101777.78;5076886;28;19912;-35
2022/08/24 11:13:49;;;;;;;;;;;;;;;27.94;53.85;101779.75;5076373;28;19998;-35
2022/08/24 11:16:22;;;;;;;;;;;;;;;28.23;52.96;101781.88;5076951;28;19989;-35
2022/08/24 11:18:48;;;;;;;;;;;;;;;28.62;53.87;101769.75;5076177;28;19924;-35
2022/08/24 11:21:40;;;;;;;;;;;;;;;29.01;48.75;101767.84;5076910;28;20019;-35
2022/08/24 11:24:23;;;;;;;;;;;;;;;29.01;50.51;101767.84;5074840;28;19912;-35
2022/08/24 11:27:00;;;;;;;;;;;;;;;29.30;50.94;101769.84;5076368;28;19912;-35
2022/08/24 11:29:29;;;;;;;;;;;;;;;29.50;50.74;101771.03;5076500;28;19959;-35
2022/08/24 11:31:54;;;;;;;;;;;;;;;29.67;48.93;101767.31;5075988;28;20241;-35
2022/08/24 11:34:30;;;;;;;;;;;;;;;29.70;48.08;101766.66;5075731;28;19912;-35
2022/08/24 11:36:55;;;;;;;;;;;;;;;29.66;48.27;101765.69;5075863;28;19912;-35
2022/08/24 11:39:20;;;;;;;;;;;;;;;29.67;46.74;101765.38;5075752;28;19920;-35
2022/08/24 11:41:46;;;;;;;;;;;;;;;29.70;48.61;101773.03;5076515;28;19916;-35
2022/08/24 11:44:18;;;;;;;;;;;;;;;29.68;48.53;101761.44;5076098;28;19912;-35
2022/08/24 11:47:02;;;;;;;;;;;;;;;29.56;47.77;101768.88;5075192;28;20314;-36
2022/08/24 11:49:51;;;;;;;;;;;;;;;29.50;50.52;101762.66;5075843;28;19969;-35
2022/08/24 11:52:43;;;;;;;;;;;;;;;29.48;47.74;101767.78;5076405;28;19912;-35
2022/08/24 11:55:16;;;;;;;;;;;;;;;29.31;47.76;101760.31;5053187;28;20325;-35
2022/08/24 11:58:01;;;;;;;;;;;;;;;29.08;47.68;101753.38;5053217;28;19913;-35
2022/08/24 12:00:38;;;;;;;;;;;;;;;29.15;48.15;101759.25;5053064;28;19913;-35
2022/08/24 12:03:28;;;;;;;;;;;;;;;29.28;49.12;101752.63;5053126;28;20340;-35
2022/08/24 12:05:56;;;;;;;;;;;;;;;29.51;46.84;101751.16;5053659;28;20348;-35
2022/08/24 12:08:33;;;;;;;;;;;;;;;29.69;48.44;101751.09;5052709;28;19913;-36
2022/08/24 12:10:59;;;;;;;;;;;;;;;29.83;48.85;101748.03;5053022;28;20253;-35
2022/08/24 12:13:46;;;;;;;;;;;;;;;29.96;48.29;101738.56;5052750;28;19916;-35
2022/08/24 12:16:21;;;;;;;;;;;;;;;30.09;46.88;101733.88;5052971;28;19917;-36
2022/08/24 12:18:48;;;;;;;;;;;;;;;30.12;46.87;101734.00;5053167;28;20378;-35
2022/08/24 12:21:16;;;;;;;;;;;;;;;30.07;47.44;101738.97;5052955;28;19920;-36
2022/08/24 12:23:47;;;;;;;;;;;;;;;29.87;48.37;101735.06;5052530;28;19935;-36
2022/08/24 12:26:19;;;;;;;;;;;;;;;29.74;49.35;101737.78;5053009;28;19931;-35
2022/08/24 12:28:47;;;;;;;;;;;;;;;29.65;48.77;101741.78;5052535;28;20402;-36
2022/08/24 12:31:16;;;;;;;;;;;;;;;29.53;48.95;101741.69;5057418;28;20355;-35
2022/08/24 12:33:44;;;;;;;;;;;;;;;29.42;49.42;101744.03;5074422;28;19913;-35
2022/08/24 12:36:20;;;;;;;;;;;;;;;29.41;50.24;101740.41;5075196;28;19919;-35
2022/08/24 12:38:49;;;;;;;;;;;;;;;29.42;49.48;101742.06;5074475;28;19916;-36
2022/08/24 12:41:18;;;;;;;;;;;;;;;29.47;47.94;101738.25;5075163;28;20081;-36
2022/08/24 12:43:49;;;;;;;;;;;;;;;29.45;48.19;101737.78;5074748;28;19958;-36
2022/08/24 12:46:19;;;;;;;;;;;;;;;29.54;48.79;101730.22;5075348;28;20256;-36
2022/08/24 12:48:47;;;;;;;;;;;;;;;29.69;48.32;101731.59;5075213;28;19993;-35
2022/08/24 12:51:31;;;;;;;;;;;;;;;29.86;49.66;101728.63;5074455;28;19912;-36
2022/08/24 12:53:57;;;;;;;;;;;;;;;29.98;48.70;101728.72;5074349;28;19961;-36
2022/08/24 12:56:41;;;;;;;;;;;;;;;30.02;48.83;101726.88;5075026;28;19920;-36